createdAt,value
2018-07-05T00:02:20.227Z,3.83
2018-07-05T00:05:00.077Z,3.37
2018-07-05T00:07:39.819Z,3.50
2018-07-05T00:10:19.404Z,4.03
2018-07-05T00:12:59.127Z,3.33
2018-07-05T00:15:38.787Z,3.93
2018-07-05T00:18:18.488Z,3.80
2018-07-05T00:20:58.229Z,4.10
2018-07-05T00:23:37.975Z,4.17
2018-07-05T00:26:17.751Z,3.47
2018-07-05T00:28:57.544Z,3.20
2018-07-05T00:31:37.154Z,3.67
2018-07-05T00:34:17.008Z,3.10
2018-07-05T00:36:56.705Z,3.37
2018-07-05T00:39:36.364Z,3.30
2018-07-05T00:42:16.106Z,3.70
2018-07-05T00:44:55.812Z,3.67
2018-07-05T00:47:35.780Z,3.40
2018-07-05T00:50:15.485Z,2.80
2018-07-05T00:52:55.156Z,3.67
2018-07-05T00:55:34.908Z,3.57
2018-07-05T00:58:14.625Z,3.50
2018-07-05T01:00:54.316Z,3.00
2018-07-05T01:03:34.391Z,3.33
2018-07-05T01:06:14.428Z,3.57
2018-07-05T01:08:54.016Z,3.17
2018-07-05T01:11:33.586Z,3.90
2018-07-05T01:14:07.294Z,3.27
2018-07-05T01:16:46.989Z,3.20
2018-07-05T01:19:26.802Z,3.70
2018-07-05T01:22:06.408Z,3.40
2018-07-05T01:24:46.010Z,3.93
2018-07-05T01:27:25.957Z,3.37
2018-07-05T01:30:05.760Z,3.23
2018-07-05T01:32:45.374Z,3.13
2018-07-05T01:35:25.154Z,3.20
2018-07-05T01:37:58.860Z,3.20
2018-07-05T01:40:38.897Z,3.17
2018-07-05T01:43:18.503Z,3.37
2018-07-05T01:45:58.247Z,2.83
2018-07-05T01:48:38.064Z,3.27
2018-07-05T01:51:17.662Z,3.60
2018-07-05T01:53:57.882Z,3.77
2018-07-05T01:56:37.555Z,3.17
2018-07-05T01:59:17.145Z,3.30
2018-07-05T02:01:56.930Z,3.20
2018-07-05T02:04:36.515Z,3.30
2018-07-05T02:07:10.280Z,4.10
2018-07-05T02:09:50.082Z,3.77
2018-07-05T02:12:30.023Z,4.10
2018-07-05T02:15:09.745Z,4.10
2018-07-05T02:17:49.451Z,4.80
2018-07-05T02:20:29.094Z,4.67
2018-07-05T02:23:08.843Z,4.83
2018-07-05T02:25:48.547Z,4.87
2018-07-05T02:28:28.181Z,4.63
2018-07-05T02:31:08.336Z,4.83
2018-07-05T02:33:48.082Z,4.27
2018-07-05T02:36:29.172Z,4.23
2018-07-05T02:39:08.503Z,3.40
2018-07-05T02:41:48.247Z,3.83
2018-07-05T02:44:28.008Z,3.73
2018-07-05T02:47:08.085Z,3.77
2018-07-05T02:49:47.832Z,3.30
2018-07-05T02:52:27.524Z,4.03
2018-07-05T02:55:07.335Z,3.77
2018-07-05T02:57:46.940Z,3.37
2018-07-05T03:00:26.624Z,3.03
2018-07-05T03:03:06.215Z,3.47
2018-07-05T03:05:45.945Z,3.60
2018-07-05T03:08:25.587Z,3.67
2018-07-05T03:11:05.305Z,4.20
2018-07-05T03:13:45.052Z,4.33
2018-07-05T03:16:24.635Z,4.83
2018-07-05T03:19:04.449Z,4.80
2018-07-05T03:21:43.910Z,6.00
2018-07-05T03:24:17.590Z,5.87
2018-07-05T03:26:57.490Z,4.53
2018-07-05T03:29:37.323Z,3.93
2018-07-05T03:32:17.226Z,3.93
2018-07-05T03:34:57.072Z,3.13
2018-07-05T03:37:36.813Z,4.07
2018-07-05T03:40:16.500Z,4.17
2018-07-05T03:42:56.151Z,5.10
2018-07-05T03:45:35.851Z,5.07
2018-07-05T03:48:15.592Z,5.10
2018-07-05T03:50:55.136Z,5.10
2018-07-05T03:53:34.868Z,4.40
2018-07-05T03:56:14.719Z,4.20
2018-07-05T03:58:54.875Z,4.13
2018-07-05T04:01:34.541Z,3.90
2018-07-05T04:04:14.214Z,4.60
2018-07-05T04:06:53.851Z,4.33
2018-07-05T04:09:33.419Z,4.00
2018-07-05T04:12:13.099Z,5.07
2018-07-05T04:14:52.846Z,4.33
2018-07-05T04:17:32.655Z,4.30
2018-07-05T04:20:12.309Z,4.60
2018-07-05T04:22:51.945Z,5.00
2018-07-05T04:25:31.875Z,4.90
2018-07-05T04:28:11.590Z,4.80
2018-07-05T04:30:51.132Z,5.10
2018-07-05T04:33:30.767Z,5.37
2018-07-05T04:36:10.303Z,5.47
2018-07-05T04:38:50.003Z,5.07
2018-07-05T04:41:29.553Z,7.83
2018-07-05T04:44:09.131Z,5.43
2018-07-05T04:46:48.794Z,6.97
2018-07-05T04:49:28.711Z,6.30
2018-07-05T04:52:08.407Z,6.90
2018-07-05T04:54:48.177Z,6.93
2018-07-05T04:57:27.934Z,5.70
2018-07-05T05:00:07.679Z,6.40
2018-07-05T05:02:47.687Z,6.07
2018-07-05T05:05:27.290Z,6.23
2018-07-05T05:08:07.205Z,6.00
2018-07-05T05:10:47.256Z,5.83
2018-07-05T05:13:26.899Z,6.30
2018-07-05T05:16:06.597Z,6.27
2018-07-05T05:18:46.329Z,7.30
2018-07-05T05:21:26.774Z,6.80
2018-07-05T05:24:06.548Z,6.53
2018-07-05T05:26:46.412Z,7.30
2018-07-05T05:29:26.074Z,7.00
2018-07-05T05:32:06.409Z,6.07
2018-07-05T05:34:46.306Z,6.33
2018-07-05T05:37:26.167Z,6.43
2018-07-05T05:40:05.783Z,7.17
2018-07-05T05:42:45.847Z,7.63
2018-07-05T05:45:25.550Z,7.50
2018-07-05T05:48:05.382Z,6.67
2018-07-05T05:50:45.425Z,6.67
2018-07-05T05:53:26.481Z,6.97
2018-07-05T05:56:06.743Z,6.43
2018-07-05T05:58:46.794Z,6.97
2018-07-05T06:01:26.716Z,6.47
2018-07-05T06:04:06.223Z,6.63
2018-07-05T06:06:46.988Z,6.67
2018-07-05T06:09:26.905Z,7.73
2018-07-05T06:12:06.647Z,7.13
2018-07-05T06:14:46.468Z,6.90
2018-07-05T06:17:26.511Z,6.73
2018-07-05T06:20:00.281Z,6.67
2018-07-05T06:22:39.918Z,7.70
2018-07-05T06:25:19.967Z,7.60
2018-07-05T06:27:59.964Z,6.20
2018-07-05T06:30:33.836Z,6.70
2018-07-05T06:33:13.532Z,6.43
2018-07-05T06:35:53.488Z,6.07
2018-07-05T06:38:33.219Z,5.80
2018-07-05T06:41:12.922Z,5.87
2018-07-05T06:43:52.669Z,5.87
2018-07-05T06:46:32.648Z,5.57
2018-07-05T06:49:06.421Z,6.40
2018-07-05T06:51:46.602Z,5.83
2018-07-05T06:54:26.403Z,6.30
2018-07-05T06:57:06.365Z,6.60
2018-07-05T06:59:46.206Z,6.23
2018-07-05T07:02:25.836Z,6.57
2018-07-05T07:05:05.827Z,6.27
2018-07-05T07:07:45.565Z,6.07
2018-07-05T07:10:25.212Z,6.10
2018-07-05T07:13:06.443Z,5.70
2018-07-05T07:15:46.299Z,5.90
2018-07-05T07:18:25.976Z,5.47
2018-07-05T07:21:05.736Z,5.90
2018-07-05T07:23:45.752Z,6.00
2018-07-05T07:26:26.624Z,5.40
2018-07-05T07:29:06.181Z,5.70
2018-07-05T07:31:46.035Z,5.47
2018-07-05T07:34:25.877Z,5.60
2018-07-05T07:37:06.084Z,5.60
2018-07-05T07:39:46.131Z,5.80
2018-07-05T07:42:14.445Z,5.50
2018-07-05T07:44:41.907Z,5.30
2018-07-05T07:47:09.708Z,5.43
2018-07-05T07:49:38.077Z,5.67
2018-07-05T07:52:05.532Z,5.40
2018-07-05T07:54:33.126Z,6.03
2018-07-05T07:57:00.839Z,5.77
2018-07-05T07:59:28.487Z,5.70
2018-07-05T08:01:55.948Z,5.57
2018-07-05T08:04:23.345Z,6.27
2018-07-05T08:06:50.915Z,5.37
2018-07-05T08:09:19.136Z,5.30
2018-07-05T08:11:46.539Z,5.20
2018-07-05T08:14:13.964Z,5.50
2018-07-05T08:16:41.342Z,5.17
2018-07-05T08:19:09.320Z,5.17
2018-07-05T08:21:36.753Z,5.13
2018-07-05T08:24:04.152Z,4.57
2018-07-05T08:26:31.660Z,5.70
2018-07-05T08:28:59.283Z,5.57
2018-07-05T08:31:27.506Z,5.53
2018-07-05T08:33:55.281Z,6.20
2018-07-05T08:36:23.252Z,5.63
2018-07-05T08:38:50.803Z,5.50
2018-07-05T08:41:18.801Z,5.43
2018-07-05T08:43:46.279Z,6.53
2018-07-05T08:46:14.661Z,6.10
2018-07-05T08:48:42.345Z,5.70
2018-07-05T08:51:09.928Z,5.30
2018-07-05T08:53:40.446Z,5.40
2018-07-05T08:56:08.013Z,5.17
2018-07-05T08:58:35.748Z,5.93
2018-07-05T09:01:03.393Z,5.50
2018-07-05T09:03:30.810Z,5.27
2018-07-05T09:05:58.314Z,5.03
2018-07-05T09:08:26.080Z,5.00
2018-07-05T09:10:54.298Z,5.40
2018-07-05T09:13:22.456Z,5.23
2018-07-05T09:15:49.864Z,5.20
2018-07-05T09:18:17.754Z,5.23
2018-07-05T09:20:49.413Z,6.10
2018-07-05T09:23:16.776Z,5.07
2018-07-05T09:25:44.267Z,6.17
2018-07-05T09:28:11.765Z,5.70
2018-07-05T09:30:39.136Z,5.87
2018-07-05T09:33:06.656Z,5.27
2018-07-05T09:35:35.509Z,5.93
2018-07-05T09:38:03.067Z,5.60
2018-07-05T09:40:30.509Z,6.37
2018-07-05T09:42:57.907Z,7.03
2018-07-05T09:45:25.313Z,6.27
2018-07-05T09:47:52.894Z,7.00
2018-07-05T09:50:20.235Z,7.17
2018-07-05T09:52:47.934Z,7.13
2018-07-05T09:55:15.265Z,6.20
2018-07-05T09:57:42.893Z,4.50
2018-07-05T10:00:12.041Z,4.30
2018-07-05T10:02:40.403Z,3.93
2018-07-05T10:05:07.885Z,3.63
2018-07-05T10:07:36.183Z,3.73
2018-07-05T10:10:04.485Z,3.60
2018-07-05T10:12:32.284Z,4.10
2018-07-05T10:14:59.856Z,3.27
2018-07-05T10:17:27.303Z,3.60
2018-07-05T10:19:55.100Z,3.00
2018-07-05T10:22:22.467Z,3.07
2018-07-05T10:24:50.290Z,3.60
2018-07-05T10:27:18.231Z,4.50
2018-07-05T10:29:58.440Z,3.50
2018-07-05T10:32:38.155Z,3.30
2018-07-05T10:35:05.605Z,2.80
2018-07-05T10:37:33.296Z,2.60
2018-07-05T10:40:13.176Z,2.57
2018-07-05T10:42:52.967Z,2.50
2018-07-05T10:45:32.926Z,2.10
2018-07-05T10:48:12.768Z,2.80
2018-07-05T10:50:52.739Z,2.97
2018-07-05T10:53:33.018Z,3.67
2018-07-05T10:56:12.719Z,4.20
2018-07-05T10:58:52.759Z,4.43
2018-07-05T11:01:32.606Z,6.20
2018-07-05T11:04:12.726Z,4.63
2018-07-05T11:06:52.373Z,4.07
2018-07-05T11:09:32.417Z,4.13
2018-07-05T11:12:12.224Z,3.60
2018-07-05T11:14:52.569Z,4.17
2018-07-05T11:17:32.540Z,3.70
2018-07-05T11:20:12.691Z,3.87
2018-07-05T11:22:52.438Z,3.37
2018-07-05T11:25:32.180Z,3.60
2018-07-05T11:28:12.206Z,2.97
2018-07-05T11:30:51.883Z,3.43
2018-07-05T11:33:31.774Z,3.17
2018-07-05T11:36:11.450Z,2.93
2018-07-05T11:38:51.218Z,3.20
2018-07-05T11:41:31.168Z,3.40
2018-07-05T11:44:10.872Z,3.40
2018-07-05T11:46:51.164Z,3.27
2018-07-05T11:49:30.938Z,3.43
2018-07-05T11:52:11.326Z,3.23
2018-07-05T11:54:51.002Z,3.07
2018-07-05T11:57:31.500Z,3.60
2018-07-05T12:00:12.071Z,3.40
2018-07-05T12:02:51.796Z,3.77
2018-07-05T12:05:31.746Z,3.63
2018-07-05T12:08:11.436Z,3.97
2018-07-05T12:10:51.619Z,3.60
2018-07-05T12:13:31.288Z,4.13
2018-07-05T12:16:11.423Z,3.40
2018-07-05T12:18:51.394Z,3.97
2018-07-05T12:21:31.102Z,3.70
2018-07-05T12:24:10.935Z,3.73
2018-07-05T12:26:50.933Z,3.77
2018-07-05T12:29:30.900Z,3.50
2018-07-05T12:32:10.664Z,3.50
2018-07-05T12:34:50.371Z,3.00
2018-07-05T12:37:30.129Z,3.30
2018-07-05T12:40:10.060Z,3.40
2018-07-05T12:42:49.723Z,3.87
2018-07-05T12:45:29.451Z,3.13
2018-07-05T12:48:10.037Z,3.03
2018-07-05T12:50:49.845Z,3.20
2018-07-05T12:53:29.710Z,2.87
2018-07-05T12:56:09.625Z,2.83
2018-07-05T12:58:50.542Z,3.20
2018-07-05T13:01:30.404Z,2.90
2018-07-05T13:04:10.526Z,2.80
2018-07-05T13:06:51.132Z,3.37
2018-07-05T13:09:30.742Z,3.00
2018-07-05T13:12:10.351Z,4.20
2018-07-05T13:14:50.773Z,3.73
2018-07-05T13:17:30.328Z,3.20
2018-07-05T13:20:10.315Z,3.57
2018-07-05T13:22:50.505Z,3.70
2018-07-05T13:25:30.110Z,3.63
2018-07-05T13:28:10.049Z,3.30
2018-07-05T13:30:50.074Z,3.20
2018-07-05T13:33:30.068Z,3.37
2018-07-05T13:36:04.413Z,3.57
2018-07-05T13:38:44.209Z,3.43
2018-07-05T13:41:24.014Z,3.70
2018-07-05T13:44:05.112Z,3.60
2018-07-05T13:46:45.388Z,3.53
2018-07-05T13:49:19.377Z,3.73
2018-07-05T13:51:59.028Z,3.57
2018-07-05T13:54:38.799Z,3.10
2018-07-05T13:57:18.456Z,3.80
2018-07-05T13:59:58.117Z,3.57
2018-07-05T14:02:38.366Z,3.50
2018-07-05T14:05:20.025Z,3.33
2018-07-05T14:07:59.661Z,3.70
2018-07-05T14:10:39.910Z,3.53
2018-07-05T14:13:19.957Z,3.87
2018-07-05T14:15:59.663Z,3.10
2018-07-05T14:18:39.609Z,2.93
2018-07-05T14:21:19.993Z,3.30
2018-07-05T14:23:59.643Z,3.53
2018-07-05T14:26:39.361Z,3.27
2018-07-05T14:29:19.521Z,3.43
2018-07-05T14:31:59.401Z,3.30
2018-07-05T14:34:39.102Z,3.20
2018-07-05T14:37:18.921Z,3.50
2018-07-05T14:39:58.749Z,3.57
2018-07-05T14:42:38.523Z,3.17
2018-07-05T14:45:18.360Z,3.20
2018-07-05T14:47:58.086Z,3.13
2018-07-05T14:50:38.038Z,3.40
2018-07-05T14:53:17.781Z,3.60
2018-07-05T14:55:58.342Z,3.33
2018-07-05T14:58:38.526Z,2.87
2018-07-05T15:01:20.285Z,3.10
2018-07-05T15:04:00.073Z,2.90
2018-07-05T15:06:39.797Z,3.03
2018-07-05T15:09:20.634Z,3.07
2018-07-05T15:12:00.612Z,3.47
2018-07-05T15:14:40.441Z,3.10
2018-07-05T15:17:20.021Z,3.30
2018-07-05T15:19:59.834Z,2.90
2018-07-05T15:22:39.580Z,3.40
2018-07-05T15:25:19.121Z,3.30
2018-07-05T15:27:58.882Z,3.80
2018-07-05T15:30:38.891Z,3.83
2018-07-05T15:33:18.668Z,3.60
2018-07-05T15:35:59.190Z,3.53
2018-07-05T15:38:38.952Z,3.77
2018-07-05T15:41:18.786Z,3.73
2018-07-05T15:43:58.487Z,4.17
2018-07-05T15:46:38.302Z,4.70
2018-07-05T15:49:17.962Z,4.20
2018-07-05T15:51:57.733Z,4.73
2018-07-05T15:54:37.512Z,4.50
2018-07-05T15:57:17.208Z,4.97
2018-07-05T15:59:57.257Z,4.87
2018-07-05T16:02:36.939Z,4.10
2018-07-05T16:05:16.708Z,4.27
2018-07-05T16:07:56.468Z,5.20
2018-07-05T16:10:36.104Z,5.10
2018-07-05T16:13:15.932Z,5.53
2018-07-05T16:15:55.862Z,5.90
2018-07-05T16:18:35.577Z,6.03
2018-07-05T16:21:16.037Z,6.07
2018-07-05T16:23:55.707Z,6.13
2018-07-05T16:26:35.516Z,5.73
2018-07-05T16:29:15.434Z,5.70
2018-07-05T16:31:55.176Z,5.60
2018-07-05T16:34:35.966Z,5.87
2018-07-05T16:37:15.642Z,5.70
2018-07-05T16:39:55.357Z,6.57
2018-07-05T16:42:35.149Z,6.70
2018-07-05T16:45:14.995Z,6.60
2018-07-05T16:47:54.758Z,6.60
2018-07-05T16:50:34.682Z,6.53
2018-07-05T16:53:14.504Z,5.80
2018-07-05T16:55:54.531Z,6.03
2018-07-05T16:58:34.307Z,6.70
2018-07-05T17:01:14.088Z,6.20
2018-07-05T17:03:54.704Z,5.97
2018-07-05T17:06:34.399Z,5.80
2018-07-05T17:09:14.248Z,5.37
2018-07-05T17:11:54.285Z,5.57
2018-07-05T17:14:34.150Z,5.57
2018-07-05T17:17:13.843Z,5.47
2018-07-05T17:19:47.826Z,5.50
2018-07-05T17:22:28.206Z,6.10
2018-07-05T17:25:07.813Z,5.60
2018-07-05T17:27:47.552Z,6.00
2018-07-05T17:30:27.203Z,5.47
2018-07-05T17:33:06.778Z,5.60
2018-07-05T17:35:46.584Z,5.30
2018-07-05T17:38:26.327Z,5.50
2018-07-05T17:41:05.985Z,5.10
2018-07-05T17:43:45.744Z,4.90
2018-07-05T17:46:25.925Z,5.57
2018-07-05T17:49:06.236Z,5.00
2018-07-05T17:51:45.947Z,6.00
2018-07-05T17:54:25.675Z,5.97
2018-07-05T17:57:05.308Z,5.37
2018-07-05T17:59:45.157Z,5.67
2018-07-05T18:02:25.079Z,5.57
2018-07-05T18:05:04.767Z,5.40
2018-07-05T18:07:44.596Z,5.57
2018-07-05T18:10:24.605Z,5.77
2018-07-05T18:13:04.524Z,5.53
2018-07-05T18:15:44.223Z,5.40
2018-07-05T18:18:23.783Z,5.47
2018-07-05T18:21:03.512Z,5.60
2018-07-05T18:23:43.406Z,5.67
2018-07-05T18:26:23.136Z,5.67
2018-07-05T18:29:02.781Z,5.77
2018-07-05T18:31:42.414Z,6.03
2018-07-05T18:34:22.435Z,5.47
2018-07-05T18:37:02.998Z,5.00
2018-07-05T18:39:42.847Z,4.97
2018-07-05T18:42:22.406Z,4.60
2018-07-05T18:45:02.231Z,4.67
2018-07-05T18:47:42.071Z,4.80
2018-07-05T18:50:22.191Z,4.00
2018-07-05T18:53:01.841Z,4.60
2018-07-05T18:55:41.818Z,4.30
2018-07-05T18:58:21.775Z,4.33
2018-07-05T19:01:01.435Z,4.00
2018-07-05T19:03:41.179Z,4.43
2018-07-05T19:06:20.733Z,3.73
2018-07-05T19:09:00.653Z,4.07
2018-07-05T19:11:41.113Z,3.80
2018-07-05T19:14:20.828Z,4.10
2018-07-05T19:17:00.721Z,4.43
2018-07-05T19:19:40.597Z,4.07
2018-07-05T19:22:20.341Z,4.80
2018-07-05T19:24:59.900Z,4.77
2018-07-05T19:27:39.680Z,5.00
2018-07-05T19:30:19.534Z,5.30
2018-07-05T19:32:59.167Z,5.63
2018-07-05T19:35:38.879Z,5.23
2018-07-05T19:38:18.558Z,5.60
2018-07-05T19:40:58.171Z,5.67
2018-07-05T19:43:37.943Z,5.50
2018-07-05T19:46:17.685Z,5.63
2018-07-05T19:48:57.392Z,5.13
2018-07-05T19:51:37.980Z,5.10
2018-07-05T19:54:17.756Z,5.17
2018-07-05T19:56:57.425Z,5.30
2018-07-05T19:59:37.052Z,5.23
2018-07-05T20:02:16.830Z,5.00
2018-07-05T20:04:57.059Z,4.37
2018-07-05T20:07:36.835Z,5.70
2018-07-05T20:10:16.650Z,5.33
2018-07-05T20:12:56.664Z,4.93
2018-07-05T20:15:36.473Z,4.80
2018-07-05T20:18:16.156Z,5.47
2018-07-05T20:20:56.212Z,5.20
2018-07-05T20:23:36.016Z,5.17
2018-07-05T20:26:15.844Z,5.83
2018-07-05T20:28:55.589Z,6.27
2018-07-05T20:31:29.427Z,5.97
2018-07-05T20:34:09.089Z,5.30
2018-07-05T20:36:48.795Z,5.90
2018-07-05T20:39:28.511Z,5.83
2018-07-05T20:42:08.568Z,5.87
2018-07-05T20:44:48.872Z,6.13
2018-07-05T20:47:28.792Z,6.03
2018-07-05T20:50:08.520Z,5.93
2018-07-05T20:52:48.271Z,5.90
2018-07-05T20:55:28.044Z,5.80
2018-07-05T20:58:07.924Z,6.20
2018-07-05T21:00:47.573Z,5.73
2018-07-05T21:03:27.398Z,5.77
2018-07-05T21:06:07.155Z,6.30
2018-07-05T21:08:47.050Z,6.23
2018-07-05T21:11:26.916Z,6.50
2018-07-05T21:14:06.744Z,6.97
2018-07-05T21:16:46.378Z,6.50
2018-07-05T21:19:26.005Z,6.20
2018-07-05T21:22:05.616Z,6.63
2018-07-05T21:24:45.407Z,6.80
2018-07-05T21:27:25.085Z,7.57
2018-07-05T21:30:04.860Z,7.20
2018-07-05T21:32:44.536Z,7.80
2018-07-05T21:35:24.181Z,7.40
2018-07-05T21:38:04.031Z,7.67
2018-07-05T21:40:43.747Z,6.83
2018-07-05T21:43:23.768Z,6.70
2018-07-05T21:46:03.577Z,6.37
2018-07-05T21:48:43.140Z,6.80
2018-07-05T21:51:23.192Z,6.00
2018-07-05T21:54:03.232Z,7.03
2018-07-05T21:56:42.969Z,6.80
2018-07-05T21:59:22.732Z,5.80
2018-07-05T22:02:02.376Z,6.20
2018-07-05T22:04:42.212Z,6.33
2018-07-05T22:07:21.710Z,7.23
2018-07-05T22:10:01.961Z,6.97
2018-07-05T22:12:41.724Z,8.57
2018-07-05T22:15:21.521Z,9.30
2018-07-05T22:18:06.587Z,9.30
2018-07-05T22:20:51.555Z,9.10
2018-07-05T22:25:40.101Z,9.10
2018-07-05T22:28:25.109Z,8.77
2018-07-05T22:31:10.071Z,8.80
2018-07-05T22:33:49.739Z,8.60
2018-07-05T22:36:29.554Z,8.73
2018-07-05T22:39:03.399Z,8.87
2018-07-05T22:41:43.371Z,9.47
2018-07-05T22:44:23.184Z,10.00
2018-07-05T22:47:03.405Z,10.97
2018-07-05T22:49:43.154Z,11.93
2018-07-05T22:52:22.931Z,11.57
2018-07-05T22:55:02.773Z,11.83
2018-07-05T22:57:42.907Z,13.47
2018-07-05T23:00:16.583Z,14.17
2018-07-05T23:02:56.344Z,14.40
2018-07-05T23:05:35.914Z,15.10
2018-07-05T23:08:16.040Z,16.13
2018-07-05T23:10:55.727Z,15.27
2018-07-05T23:13:35.479Z,14.23
2018-07-05T23:16:15.184Z,15.40
2018-07-05T23:18:54.997Z,15.10
2018-07-05T23:21:34.726Z,15.57
2018-07-05T23:24:14.558Z,15.13
2018-07-05T23:26:54.523Z,16.23
2018-07-05T23:29:34.304Z,16.70
2018-07-05T23:32:08.095Z,15.23
2018-07-05T23:34:47.791Z,16.30
2018-07-05T23:37:27.638Z,17.50
2018-07-05T23:40:07.420Z,17.30
2018-07-05T23:42:47.169Z,18.13
2018-07-05T23:45:26.863Z,17.00
2018-07-05T23:48:06.636Z,18.50
2018-07-05T23:50:46.262Z,18.63
2018-07-05T23:53:26.025Z,19.23
2018-07-05T23:56:05.940Z,19.80
2018-07-05T23:58:45.741Z,18.93
